Time;durP1;ratioP1;P1;durP2;ratioP2;P2;SDS_P1;SDS_P2;PMS_P1;PMS_P2;Temp;Humidity;BMP_temperature;BMP_pressure;BME280_temperature;BME280_humidity;BME280_pressure;Samples;Min_cycle;Max_cycle;Signal;HPM_P1;HPM_P2
2023/09/29 18:20:57;;;;;;;13.82;6.32;;;15.30;1.00;;;;;;4976750;27;1280746;-88
2023/09/29 18:23:38;;;;;;;13.27;6.55;;;15.00;5.00;;;;;;4972808;28;20169;-92
2023/09/29 18:26:50;;;;;;;14.73;6.95;;;14.90;12.20;;;;;;5099762;28;20051;-91
2023/09/29 18:29:40;;;;;;;14.35;6.90;;;14.00;12.30;;;;;;5094179;28;20385;-91
2023/09/29 18:32:10;;;;;;;18.75;6.80;;;14.70;18.40;;;;;;5095071;28;20061;-91
2023/09/29 18:34:45;;;;;;;16.88;6.32;;;14.60;22.10;;;;;;5094898;28;20081;-90
2023/09/29 18:37:42;;;;;;;13.98;5.95;;;14.50;22.90;;;;;;5093914;28;20055;-90
2023/09/29 18:40:26;;;;;;;;;;;;;;;;;;;;;
2023/09/29 18:42:55;;;;;;;15.73;5.85;;;14.50;25.40;;;;;;5078953;28;20495;-91
2023/09/29 18:45:34;;;;;;;;;;;;;;;;;;;;;
2023/09/29 18:48:02;;;;;;;15.68;5.53;;;14.30;26.80;;;;;;5094842;28;20063;-90
2023/09/29 18:50:31;;;;;;;14.95;6.25;;;14.40;27.30;;;;;;5075897;28;20100;-91
2023/09/29 18:53:01;;;;;;;12.98;5.35;;;14.20;27.40;;;;;;5092752;28;20377;-91
2023/09/29 18:55:39;;;;;;;18.67;6.38;;;13.30;28.70;;;;;;5076461;28;20082;-91
2023/09/29 18:58:05;;;;;;;14.65;6.00;;;14.20;29.00;;;;;;5094533;28;20105;-89
2023/09/29 19:00:32;;;;;;;13.40;6.25;;;13.30;29.30;;;;;;5060775;28;20047;-95
2023/09/29 19:03:01;;;;;;;13.38;6.40;;;14.10;30.00;;;;;;5096191;28;20052;-95
2023/09/29 19:05:30;;;;;;;13.88;6.78;;;14.00;29.50;;;;;;5107585;28;20045;-91
2023/09/29 19:07:58;;;;;;;13.80;6.32;;;14.00;29.90;;;;;;5098615;28;20039;-92
2023/09/29 19:10:33;;;;;;;13.70;6.05;;;14.00;30.30;;;;;;5114064;28;20051;-93
2023/09/29 19:13:11;;;;;;;15.15;6.18;;;14.00;31.20;;;;;;5114858;28;20054;-90
2023/09/29 19:15:52;;;;;;;13.55;5.53;;;14.00;30.10;;;;;;5099430;28;20054;-87
2023/09/29 19:18:21;;;;;;;13.32;5.38;;;14.30;30.40;;;;;;5094697;28;20055;-96
2023/09/29 19:20:55;;;;;;;12.70;5.57;;;13.90;31.00;;;;;;5096693;28;20047;-92
2023/09/29 19:23:24;;;;;;;14.93;6.95;;;14.60;32.70;;;;;;5094270;28;20044;-93
2023/09/29 19:25:52;;;;;;;16.92;7.60;;;13.80;33.20;;;;;;5096400;28;20051;-92
2023/09/29 19:28:20;;;;;;;14.02;6.53;;;13.90;33.60;;;;;;5079842;28;20036;-94
2023/09/29 19:30:48;;;;;;;15.15;7.32;;;13.70;34.70;;;;;;5092088;28;20090;-92
2023/09/29 19:33:17;;;;;;;16.40;7.07;;;13.70;35.40;;;;;;5101960;28;20051;-93
2023/09/29 19:35:45;;;;;;;12.90;6.28;;;14.40;35.50;;;;;;5050655;28;20043;-93
2023/09/29 19:38:12;;;;;;;11.43;5.18;;;13.80;36.30;;;;;;5066412;28;20047;-92
2023/09/29 19:40:38;;;;;;;;;;;13.60;36.90;;;;;;5100023;28;20051;-94
2023/09/29 19:43:11;;;;;;;10.10;6.15;;;13.60;34.70;;;;;;5082019;28;20361;-93
2023/09/29 19:45:37;;;;;;;13.75;6.10;;;13.50;38.30;;;;;;5068668;27;20257;-93
2023/09/29 19:48:14;;;;;;;12.57;5.65;;;13.50;39.30;;;;;;5084140;28;20046;-96
2023/09/29 19:50:40;;;;;;;14.90;5.72;;;13.50;39.70;;;;;;5084660;28;20047;-93
2023/09/29 19:53:05;;;;;;;13.90;5.30;;;13.40;40.70;;;;;;5085306;28;20051;-94
2023/09/29 19:58:50;;;;;;;10.65;4.90;;;13.30;38.80;;;;;;5280189;22;20359;-94
2023/09/29 20:02:02;;;;;;;;;;;;;;;;;;;;;
2023/09/29 20:04:34;;;;;;;11.55;5.13;;;13.40;38.80;;;;;;5096098;28;20040;-91
2023/09/29 20:07:00;;;;;;;10.27;5.03;;;13.30;40.90;;;;;;5063167;28;20040;-89
2023/09/29 20:09:28;;;;;;;11.63;5.13;;;13.20;41.50;;;;;;5061028;28;20134;-91
2023/09/29 20:11:57;;;;;;;15.90;5.65;;;13.20;41.20;;;;;;5080284;28;20056;-91
2023/09/29 20:14:25;;;;;;;24.80;5.93;;;13.20;41.40;;;;;;5063730;28;20383;-94
2023/09/29 20:16:51;;;;;;;12.10;5.20;;;13.10;41.30;;;;;;5045793;28;20485;-93
2023/09/29 20:19:20;;;;;;;9.68;5.15;;;13.10;41.50;;;;;;5080041;28;20082;-93
2023/09/29 20:21:46;;;;;;;10.65;5.07;;;12.80;41.30;;;;;;5060385;28;20374;-87
2023/09/29 20:24:12;;;;;;;13.07;4.83;;;13.10;42.60;;;;;;5060559;28;20051;-91
2023/09/29 20:26:39;;;;;;;13.93;5.33;;;13.10;42.50;;;;;;5061418;28;20048;-91
2023/09/29 20:29:05;;;;;;;8.20;4.32;;;13.00;42.60;;;;;;5061053;28;20109;-89
2023/09/29 20:31:33;;;;;;;11.25;4.80;;;13.00;42.10;;;;;;5060851;28;20051;-88
2023/09/29 20:34:00;;;;;;;10.38;4.78;;;13.00;41.80;;;;;;5078328;28;20091;-90
2023/09/29 20:36:26;;;;;;;;;;;12.90;42.00;;;;;;5064311;28;20048;-95
2023/09/29 20:38:52;;;;;;;8.30;3.83;;;12.80;37.20;;;;;;5061626;28;20006;-93
2023/09/29 20:41:17;;;;;;;9.53;4.80;;;12.80;42.60;;;;;;5061008;28;20128;-96
2023/09/29 20:43:46;;;;;;;13.40;4.38;;;12.80;42.50;;;;;;5063072;28;20052;-96
2023/09/29 20:46:12;;;;;;;11.23;4.85;;;12.70;43.40;;;;;;5065354;28;20508;-95
2023/09/29 20:48:38;;;;;;;13.97;5.10;;;12.70;43.80;;;;;;5077496;28;20048;-86
2023/09/29 20:51:11;;;;;;;;;;;12.60;43.80;;;;;;5061001;28;20044;-89
2023/09/29 20:53:37;;;;;;;12.07;4.72;;;12.60;43.90;;;;;;5078635;28;19926;-87
2023/09/29 20:56:10;;;;;;;12.47;4.57;;;12.50;47.00;;;;;;5077163;28;20127;-89
2023/09/29 20:58:36;;;;;;;11.05;4.57;;;12.60;47.60;;;;;;5061053;28;20385;-92
2023/09/29 21:01:12;;;;;;;11.47;5.23;;;12.50;48.20;;;;;;5056706;28;20090;-93
2023/09/29 21:03:38;;;;;;;7.80;4.72;;;12.60;47.10;;;;;;5057566;28;20048;-94
2023/09/29 21:06:09;;;;;;;14.35;5.18;;;12.60;48.70;;;;;;5057844;28;20052;-90
2023/09/29 21:08:37;;;;;;;11.57;4.97;;;12.50;49.40;;;;;;5075174;28;20040;-90
2023/09/29 21:11:03;;;;;;;12.25;4.13;;;12.50;50.00;;;;;;5059160;28;20146;-91
2023/09/29 21:13:31;;;;;;;8.27;3.67;;;12.50;51.50;;;;;;5075623;28;20439;-88
2023/09/29 21:15:57;;;;;;;13.40;6.13;;;12.40;52.30;;;;;;5060186;28;20047;-94
2023/09/29 21:18:32;;;;;;;12.00;4.87;;;12.40;52.00;;;;;;5061789;28;20647;-93
2023/09/29 21:21:08;;;;;;;8.68;5.25;;;12.40;51.80;;;;;;5062452;28;20302;-90
2023/09/29 21:23:34;;;;;;;10.48;4.85;;;12.40;51.20;;;;;;5042709;28;20595;-91
2023/09/29 21:25:59;;;;;;;7.23;4.67;;;12.30;52.40;;;;;;5076319;28;20135;-88
2023/09/29 21:28:25;;;;;;;12.00;4.27;;;12.40;53.00;;;;;;5077218;28;20481;-87
2023/09/29 21:30:51;;;;;;;11.23;4.50;;;12.30;53.40;;;;;;5044413;28;20048;-90
2023/09/29 21:33:24;;;;;;;12.57;4.50;;;11.30;53.50;;;;;;5060275;28;20102;-92
2023/09/29 21:35:57;;;;;;;17.85;5.55;;;12.30;54.50;;;;;;5063503;28;20079;-91
2023/09/29 21:38:28;;;;;;;15.05;5.93;;;12.30;55.10;;;;;;5044795;28;20160;-92
2023/09/29 21:41:01;;;;;;;13.10;5.30;;;12.30;56.10;;;;;;5061312;28;20075;-91
2023/09/29 21:43:37;;;;;;;13.75;4.72;;;12.30;56.60;;;;;;5060215;28;20052;-90
2023/09/29 21:46:05;;;;;;;15.60;5.43;;;12.30;57.10;;;;;;5044641;28;20044;-91
2023/09/29 21:48:31;;;;;;;14.50;4.35;;;12.30;57.50;;;;;;5075736;28;20040;-89
2023/09/29 21:51:04;;;;;;;15.13;5.25;;;12.40;57.30;;;;;;5059587;28;20512;-89
2023/09/29 21:53:37;;;;;;;8.57;4.15;;;12.30;56.30;;;;;;5061245;28;20105;-96
2023/09/29 21:56:05;;;;;;;11.25;4.32;;;12.20;55.70;;;;;;5059169;28;20492;-93
2023/09/29 21:58:33;;;;;;;15.73;5.13;;;12.30;55.00;;;;;;5061046;28;20044;-90
2023/09/29 22:01:09;;;;;;;10.02;4.28;;;12.20;55.10;;;;;;5059090;28;20135;-91
2023/09/29 22:03:37;;;;;;;15.57;4.57;;;12.20;55.50;;;;;;5060825;28;20489;-89
2023/09/29 22:06:04;;;;;;;9.35;4.40;;;12.20;55.40;;;;;;5077202;28;20044;-90
2023/09/29 22:08:32;;;;;;;9.98;4.32;;;12.10;57.00;;;;;;5072766;28;20154;-87
2023/09/29 22:11:03;;;;;;;8.73;3.55;;;12.10;57.60;;;;;;5057398;28;20374;-87
2023/09/29 22:13:29;;;;;;;11.30;5.20;;;12.00;57.40;;;;;;5058827;28;20051;-86
2023/09/29 22:15:55;;;;;;;9.73;4.38;;;12.10;57.50;;;;;;5074442;28;20048;-86
2023/09/29 22:18:24;;;;;;;10.33;3.50;;;12.00;57.80;;;;;;5042571;28;20055;-86
2023/09/29 22:20:54;;;;;;;13.35;4.55;;;11.90;58.60;;;;;;5076313;28;20306;-86
2023/09/29 22:23:24;;;;;;;19.35;4.75;;;12.00;59.70;;;;;;5042876;28;20488;-86
2023/09/29 22:25:56;;;;;;;12.38;4.78;;;11.90;61.00;;;;;;5042893;28;20044;-86
2023/09/29 22:28:21;;;;;;;14.77;4.47;;;12.00;61.90;;;;;;5043753;28;20054;-86
2023/09/29 22:30:47;;;;;;;15.37;5.17;;;12.00;61.60;;;;;;5058582;28;20142;-86
2023/09/29 22:33:15;;;;;;;12.63;4.57;;;12.00;60.80;;;;;;5058839;28;20043;-86
2023/09/29 22:35:41;;;;;;;13.57;5.05;;;11.90;61.10;;;;;;5049028;28;20051;-86
2023/09/29 22:38:07;;;;;;;10.50;3.72;;;11.60;62.70;;;;;;5059129;28;20412;-86
2023/09/29 22:40:34;;;;;;;10.50;4.15;;;11.90;63.50;;;;;;5091356;28;20523;-86
2023/09/29 22:43:04;;;;;;;13.45;4.68;;;11.90;63.90;;;;;;5075499;28;20059;-86
2023/09/29 22:45:30;;;;;;;11.40;4.53;;;11.80;64.50;;;;;;5093210;28;20105;-86
2023/09/29 22:47:56;;;;;;;9.82;3.83;;;11.90;64.30;;;;;;5076571;28;20040;-86
2023/09/29 22:50:25;;;;;;;9.63;4.25;;;11.90;63.90;;;;;;5092380;28;20043;-87
2023/09/29 22:52:53;;;;;;;13.15;5.03;;;11.80;64.10;;;;;;5076162;28;20096;-87
2023/09/29 22:55:22;;;;;;;13.52;4.82;;;11.90;65.30;;;;;;5075428;28;20047;-86
2023/09/29 22:57:48;;;;;;;9.80;3.88;;;11.80;65.40;;;;;;5092672;28;20043;-86
2023/09/29 23:00:14;;;;;;;13.85;4.35;;;11.80;64.50;;;;;;5075682;28;20416;-86
2023/09/29 23:02:42;;;;;;;12.57;3.92;;;11.80;65.10;;;;;;5093002;28;20048;-85
2023/09/29 23:05:08;;;;;;;11.20;4.00;;;11.80;65.70;;;;;;5058260;28;20130;-86
2023/09/29 23:07:34;;;;;;;13.93;4.72;;;11.80;66.90;;;;;;5045644;28;20140;-86
2023/09/29 23:10:03;;;;;;;9.18;4.40;;;11.80;66.10;;;;;;5094857;28;20044;-86
2023/09/29 23:12:29;;;;;;;11.88;3.90;;;11.80;64.80;;;;;;5058958;28;20048;-86
2023/09/29 23:14:59;;;;;;;10.18;4.13;;;11.80;64.00;;;;;;5059318;28;20095;-85
2023/09/29 23:17:25;;;;;;;14.55;4.72;;;11.70;63.30;;;;;;5041543;28;20500;-85
2023/09/29 23:19:54;;;;;;;8.68;4.28;;;11.70;63.70;;;;;;5042294;28;20048;-87
2023/09/29 23:22:20;;;;;;;16.27;4.53;;;11.70;65.10;;;;;;5059437;28;20508;-86
2023/09/29 23:24:46;;;;;;;12.38;5.20;;;11.60;66.60;;;;;;5059464;28;20075;-85
2023/09/29 23:27:11;;;;;;;12.23;4.63;;;11.70;67.60;;;;;;5040691;28;20083;-86
2023/09/29 23:29:38;;;;;;;18.80;5.67;;;11.70;68.00;;;;;;5061637;28;20051;-86
2023/09/29 23:32:04;;;;;;;15.10;4.80;;;11.60;68.00;;;;;;5061640;28;20047;-86
2023/09/29 23:34:30;;;;;;;13.90;4.90;;;11.60;68.10;;;;;;5079484;28;20109;-86
2023/09/29 23:36:56;;;;;;;12.10;5.13;;;11.60;68.70;;;;;;5045350;28;20136;-86
2023/09/29 23:39:22;;;;;;;10.35;4.15;;;11.60;68.90;;;;;;5062104;28;20040;-86
2023/09/29 23:41:47;;;;;;;9.87;4.30;;;11.60;69.00;;;;;;5061588;28;20051;-86
2023/09/29 23:44:15;;;;;;;9.27;4.13;;;11.60;68.80;;;;;;5077601;28;20048;-86
2023/09/29 23:46:46;;;;;;;7.30;4.70;;;11.10;69.30;;;;;;5077530;28;20036;-86
2023/09/29 23:49:15;;;;;;;6.85;3.70;;;11.60;69.10;;;;;;5077392;28;20083;-86
2023/09/29 23:51:41;;;;;;;14.63;5.07;;;11.60;67.80;;;;;;5061890;28;20044;-86
2023/09/29 23:54:07;;;;;;;10.13;4.63;;;11.50;67.00;;;;;;5076948;28;20047;-86
2023/09/29 23:56:35;;;;;;;13.87;4.47;;;11.60;66.60;;;;;;5060892;28;20404;-86
2023/09/29 23:59:01;;;;;;;9.15;4.10;;;11.60;66.90;;;;;;5060650;28;20805;-86
